createdAt,value
2018-08-17T00:02:04.669Z,94806.00
2018-08-17T00:04:35.606Z,94803.00
2018-08-17T00:07:06.545Z,94808.00
2018-08-17T00:09:37.571Z,94805.00
2018-08-17T00:12:08.617Z,94810.00
2018-08-17T00:14:39.623Z,94804.00
2018-08-17T00:17:10.537Z,94814.00
2018-08-17T00:19:41.387Z,94818.00
2018-08-17T00:22:12.386Z,94817.00
2018-08-17T00:24:43.339Z,94820.00
2018-08-17T00:27:14.281Z,94807.00
2018-08-17T00:29:45.103Z,94806.00
2018-08-17T00:32:16.103Z,94804.00
2018-08-17T00:34:46.932Z,94811.00
2018-08-17T00:37:17.923Z,94809.00
2018-08-17T00:39:48.799Z,94807.00
2018-08-17T00:42:19.659Z,94805.00
2018-08-17T00:44:50.602Z,94810.00
2018-08-17T00:47:21.625Z,94808.00
2018-08-17T00:49:52.625Z,94811.00
2018-08-17T00:52:23.381Z,94806.00
2018-08-17T00:54:54.247Z,94809.00
2018-08-17T00:57:25.050Z,94813.00
2018-08-17T00:59:56.066Z,94812.00
2018-08-17T01:02:27.088Z,94811.00
2018-08-17T01:04:57.885Z,94812.00
2018-08-17T01:07:28.888Z,94812.00
2018-08-17T01:09:59.846Z,94814.00
2018-08-17T01:12:30.609Z,94816.00
2018-08-17T01:15:01.397Z,94810.00
2018-08-17T01:17:32.269Z,94808.00
2018-08-17T01:20:03.091Z,94813.00
2018-08-17T01:22:33.897Z,94801.00
2018-08-17T01:25:04.668Z,94809.00
2018-08-17T01:27:35.414Z,94807.00
2018-08-17T01:30:10.124Z,94808.00
2018-08-17T01:32:40.949Z,94805.00
2018-08-17T01:35:11.728Z,94809.00
2018-08-17T01:37:42.566Z,94814.00
2018-08-17T01:40:13.347Z,94821.00
2018-08-17T01:42:44.141Z,94823.00
2018-08-17T01:45:15.546Z,94824.00
2018-08-17T01:47:46.442Z,94824.00
2018-08-17T01:50:17.452Z,94822.00
2018-08-17T01:52:48.228Z,94822.00
2018-08-17T01:55:19.058Z,94826.00
2018-08-17T01:57:49.936Z,94816.00
2018-08-17T02:00:20.764Z,94812.00
2018-08-17T02:02:51.830Z,94815.00
2018-08-17T02:05:22.687Z,94824.00
2018-08-17T02:07:53.415Z,94827.00
2018-08-17T02:10:24.284Z,94823.00
2018-08-17T02:12:55.663Z,94822.00
2018-08-17T02:15:26.533Z,94821.00
2018-08-17T02:17:57.419Z,94822.00
2018-08-17T02:20:28.235Z,94818.00
2018-08-17T02:22:59.218Z,94816.00
2018-08-17T02:25:30.215Z,94816.00
2018-08-17T02:28:01.489Z,94818.00
2018-08-17T02:30:32.350Z,94817.00
2018-08-17T02:33:03.265Z,94815.00
2018-08-17T02:35:34.075Z,94810.00
2018-08-17T02:38:04.819Z,94812.00
2018-08-17T02:40:35.688Z,94821.00
2018-08-17T02:43:06.540Z,94828.00
2018-08-17T02:45:37.520Z,94831.00
2018-08-17T02:48:08.270Z,94831.00
2018-08-17T02:50:39.213Z,94828.00
2018-08-17T02:53:10.318Z,94828.00
2018-08-17T02:55:41.292Z,94822.00
2018-08-17T02:58:12.031Z,94823.00
2018-08-17T03:00:43.033Z,94819.00
2018-08-17T03:03:14.003Z,94822.00
2018-08-17T03:05:44.831Z,94828.00
2018-08-17T03:08:15.753Z,94826.00
2018-08-17T03:10:46.591Z,94818.00
2018-08-17T03:13:17.522Z,94819.00
2018-08-17T03:15:48.476Z,94816.00
2018-08-17T03:18:19.286Z,94821.00
2018-08-17T03:20:50.118Z,94827.00
2018-08-17T03:23:20.964Z,94825.00
2018-08-17T03:25:52.105Z,94819.00
2018-08-17T03:28:23.049Z,94824.00
2018-08-17T03:30:53.848Z,94825.00
2018-08-17T03:33:25.016Z,94831.00
2018-08-17T03:35:56.269Z,94828.00
2018-08-17T03:38:26.935Z,94824.00
2018-08-17T03:40:57.731Z,94831.00
2018-08-17T03:43:28.613Z,94827.00
2018-08-17T03:45:59.378Z,94835.00
2018-08-17T03:48:30.535Z,94842.00
2018-08-17T03:51:01.559Z,94840.00
2018-08-17T03:53:32.469Z,94835.00
2018-08-17T03:56:03.424Z,94836.00
2018-08-17T03:58:34.367Z,94831.00
2018-08-17T04:01:05.342Z,94838.00
2018-08-17T04:03:36.279Z,94835.00
2018-08-17T04:06:07.044Z,94838.00
2018-08-17T04:08:37.856Z,94842.00
2018-08-17T04:11:08.843Z,94839.00
2018-08-17T04:13:39.968Z,94838.00
2018-08-17T04:16:10.843Z,94841.00
2018-08-17T04:18:45.756Z,94844.00
2018-08-17T04:21:16.758Z,94842.00
2018-08-17T04:23:47.642Z,94845.00
2018-08-17T04:26:18.787Z,94844.00
2018-08-17T04:28:50.186Z,94845.00
2018-08-17T04:31:21.553Z,94845.00
2018-08-17T04:33:52.782Z,94853.00
2018-08-17T04:36:23.689Z,94850.00
2018-08-17T04:38:54.545Z,94851.00
2018-08-17T04:41:25.810Z,94854.00
2018-08-17T04:43:56.757Z,94846.00
2018-08-17T04:46:27.576Z,94856.00
2018-08-17T04:48:58.382Z,94861.00
2018-08-17T04:51:29.583Z,94864.00
2018-08-17T04:54:00.528Z,94863.00
2018-08-17T04:56:31.560Z,94859.00
2018-08-17T04:59:02.550Z,94861.00
2018-08-17T05:01:33.379Z,94861.00
2018-08-17T05:04:04.347Z,94863.00
2018-08-17T05:06:35.412Z,94863.00
2018-08-17T05:09:07.625Z,94862.00
2018-08-17T05:11:38.627Z,94864.00
2018-08-17T05:14:09.674Z,94866.00
2018-08-17T05:16:40.706Z,94869.00
2018-08-17T05:19:11.697Z,94868.00
2018-08-17T05:21:42.727Z,94866.00
2018-08-17T05:24:14.190Z,94869.00
2018-08-17T05:26:45.205Z,94879.00
2018-08-17T05:29:16.144Z,94882.00
2018-08-17T05:31:47.117Z,94881.00
2018-08-17T05:34:17.948Z,94879.00
2018-08-17T05:36:49.046Z,94879.00
2018-08-17T05:39:20.284Z,94877.00
2018-08-17T05:41:51.269Z,94877.00
2018-08-17T05:44:22.258Z,94875.00
2018-08-17T05:46:53.100Z,94874.00
2018-08-17T05:49:24.501Z,94878.00
2018-08-17T05:51:55.498Z,94877.00
2018-08-17T05:54:26.463Z,94877.00
2018-08-17T05:56:57.463Z,94880.00
2018-08-17T05:59:28.500Z,94882.00
2018-08-17T06:01:59.426Z,94876.00
2018-08-17T06:04:30.297Z,94875.00
2018-08-17T06:07:01.445Z,94875.00
2018-08-17T06:09:32.700Z,94884.00
2018-08-17T06:12:03.791Z,94876.00
2018-08-17T06:14:35.011Z,94883.00
2018-08-17T06:17:06.054Z,94881.00
2018-08-17T06:19:37.246Z,94879.00
2018-08-17T06:22:08.469Z,94875.00
2018-08-17T06:24:39.775Z,94868.00
2018-08-17T06:27:11.110Z,94870.00
2018-08-17T06:29:42.354Z,94869.00
2018-08-17T06:32:13.841Z,94861.00
2018-08-17T06:34:45.084Z,94864.00
2018-08-17T06:37:16.420Z,94861.00
2018-08-17T06:39:47.413Z,94860.00
2018-08-17T06:42:18.675Z,94862.00
2018-08-17T06:44:49.888Z,94861.00
2018-08-17T06:47:21.145Z,94864.00
2018-08-17T06:49:52.513Z,94866.00
2018-08-17T06:52:24.025Z,94870.00
2018-08-17T06:54:55.243Z,94864.00
2018-08-17T06:57:26.547Z,94867.00
2018-08-17T06:59:57.743Z,94867.00
2018-08-17T07:02:29.080Z,94871.00
2018-08-17T07:05:00.312Z,94866.00
2018-08-17T07:07:31.486Z,94868.00
2018-08-17T07:10:02.640Z,94873.00
2018-08-17T07:12:33.935Z,94864.00
2018-08-17T07:15:05.466Z,94869.00
2018-08-17T07:17:36.856Z,94873.00
2018-08-17T07:20:10.301Z,94871.00
2018-08-17T07:22:41.848Z,94872.00
2018-08-17T07:25:13.054Z,94871.00
2018-08-17T07:27:44.234Z,94867.00
2018-08-17T07:30:15.243Z,94867.00
2018-08-17T07:32:46.449Z,94867.00
2018-08-17T07:35:17.663Z,94872.00
2018-08-17T07:37:49.180Z,94869.00
2018-08-17T07:40:20.488Z,94866.00
2018-08-17T07:42:51.597Z,94864.00
2018-08-17T07:45:22.824Z,94869.00
2018-08-17T07:47:53.962Z,94866.00
2018-08-17T07:50:25.121Z,94868.00
2018-08-17T07:52:56.315Z,94864.00
2018-08-17T07:55:27.570Z,94864.00
2018-08-17T07:57:58.932Z,94869.00
2018-08-17T08:00:30.362Z,94863.00
2018-08-17T08:03:01.523Z,94861.00
2018-08-17T08:05:32.846Z,94864.00
2018-08-17T08:08:03.979Z,94863.00
2018-08-17T08:10:35.260Z,94856.00
2018-08-17T08:13:06.585Z,94857.00
2018-08-17T08:15:37.901Z,94855.00
2018-08-17T08:18:09.006Z,94846.00
2018-08-17T08:20:43.766Z,94846.00
2018-08-17T08:23:26.519Z,94839.00
2018-08-17T08:25:58.513Z,94839.00
2018-08-17T08:28:29.939Z,94845.00
2018-08-17T08:31:01.028Z,94842.00
2018-08-17T08:33:32.184Z,94844.00
2018-08-17T08:36:03.324Z,94838.00
2018-08-17T08:38:34.391Z,94839.00
2018-08-17T08:41:05.741Z,94829.00
2018-08-17T08:43:36.811Z,94831.00
2018-08-17T08:46:07.840Z,94831.00
2018-08-17T08:48:38.757Z,94838.00
2018-08-17T08:51:09.933Z,94830.00
2018-08-17T08:53:40.993Z,94834.00
2018-08-17T08:56:12.033Z,94825.00
2018-08-17T08:58:43.119Z,94820.00
2018-08-17T09:01:14.292Z,94820.00
2018-08-17T09:03:45.652Z,94815.00
2018-08-17T09:06:17.033Z,94817.00
2018-08-17T09:08:48.332Z,94815.00
2018-08-17T09:11:19.655Z,94816.00
2018-08-17T09:13:50.738Z,94816.00
2018-08-17T09:16:21.750Z,94812.00
2018-08-17T09:18:53.106Z,94806.00
2018-08-17T09:21:24.225Z,94809.00
2018-08-17T09:23:55.286Z,94810.00
2018-08-17T09:26:26.397Z,94806.00
2018-08-17T09:28:57.365Z,94807.00
2018-08-17T09:31:28.597Z,94801.00
2018-08-17T09:33:59.611Z,94798.00
2018-08-17T09:36:30.637Z,94799.00
2018-08-17T09:39:01.974Z,94795.00
2018-08-17T09:41:33.144Z,94790.00
2018-08-17T09:44:04.466Z,94789.00
2018-08-17T09:46:36.032Z,94785.00
2018-08-17T09:49:07.187Z,94784.00
2018-08-17T09:51:38.305Z,94782.00
2018-08-17T09:54:10.479Z,94783.00
2018-08-17T09:56:41.797Z,94771.00
2018-08-17T09:59:13.063Z,94772.00
2018-08-17T10:01:49.433Z,94774.00
2018-08-17T10:04:25.859Z,94774.00
2018-08-17T10:07:02.108Z,94777.00
2018-08-17T10:09:38.200Z,94767.00
2018-08-17T10:12:09.894Z,94762.00
2018-08-17T10:14:41.069Z,94760.00
2018-08-17T10:17:12.179Z,94762.00
2018-08-17T10:19:43.379Z,94758.00
2018-08-17T10:22:14.635Z,94755.00
2018-08-17T10:24:45.861Z,94741.00
2018-08-17T10:27:17.221Z,94738.00
2018-08-17T10:29:48.533Z,94738.00
2018-08-17T10:32:19.679Z,94743.00
2018-08-17T10:34:50.870Z,94750.00
2018-08-17T10:37:22.044Z,94743.00
2018-08-17T10:39:53.242Z,94735.00
2018-08-17T10:42:24.613Z,94737.00
2018-08-17T10:44:55.842Z,94744.00
2018-08-17T10:47:26.933Z,94739.00
2018-08-17T10:50:00.258Z,94741.00
2018-08-17T10:52:31.769Z,94741.00
2018-08-17T10:55:03.145Z,94742.00
2018-08-17T10:57:34.341Z,94742.00
2018-08-17T11:00:05.915Z,94740.00
2018-08-17T11:02:37.054Z,94733.00
2018-08-17T11:05:08.639Z,94734.00
2018-08-17T11:07:39.794Z,94733.00
2018-08-17T11:10:12.092Z,94730.00
2018-08-17T11:12:45.388Z,94733.00
2018-08-17T11:15:17.440Z,94731.00
2018-08-17T11:17:48.710Z,94729.00
2018-08-17T11:20:20.030Z,94730.00
2018-08-17T11:22:51.171Z,94734.00
2018-08-17T11:25:22.612Z,94734.00
2018-08-17T11:27:54.863Z,94733.00
2018-08-17T11:30:26.076Z,94730.00
2018-08-17T11:32:57.253Z,94726.00
2018-08-17T11:35:28.372Z,94725.00
2018-08-17T11:37:59.539Z,94725.00
2018-08-17T11:40:30.738Z,94725.00
2018-08-17T11:43:02.049Z,94729.00
2018-08-17T11:45:33.312Z,94727.00
2018-08-17T11:48:04.445Z,94718.00
2018-08-17T11:50:38.223Z,94718.00
2018-08-17T11:53:09.431Z,94717.00
2018-08-17T11:55:40.695Z,94728.00
2018-08-17T11:58:12.824Z,94718.00
2018-08-17T12:00:43.830Z,94725.00
2018-08-17T12:03:14.967Z,94722.00
2018-08-17T12:05:46.465Z,94724.00
2018-08-17T12:08:17.680Z,94728.00
2018-08-17T12:10:58.004Z,94721.00
2018-08-17T12:13:29.502Z,94722.00
2018-08-17T12:16:00.634Z,94717.00
2018-08-17T12:18:32.052Z,94711.00
2018-08-17T12:21:03.192Z,94713.00
2018-08-17T12:23:34.283Z,94714.00
2018-08-17T12:26:06.302Z,94703.00
2018-08-17T12:28:42.132Z,94706.00
2018-08-17T12:31:13.419Z,94703.00
2018-08-17T12:33:44.592Z,94695.00
2018-08-17T12:36:15.659Z,94700.00
2018-08-17T12:38:46.665Z,94694.00
2018-08-17T12:41:17.696Z,94687.00
2018-08-17T12:43:48.676Z,94684.00
2018-08-17T12:46:19.732Z,94682.00
2018-08-17T12:48:50.921Z,94669.00
2018-08-17T12:51:22.147Z,94666.00
2018-08-17T12:53:53.250Z,94672.00
2018-08-17T12:56:24.428Z,94669.00
2018-08-17T12:58:55.407Z,94674.00
2018-08-17T13:01:26.381Z,94668.00
2018-08-17T13:03:57.348Z,94665.00
2018-08-17T13:06:28.429Z,94668.00
2018-08-17T13:08:59.430Z,94669.00
2018-08-17T13:11:30.810Z,94673.00
2018-08-17T13:14:07.106Z,94663.00
2018-08-17T13:16:40.400Z,94668.00
2018-08-17T13:19:11.506Z,94663.00
2018-08-17T13:21:42.912Z,94662.00
2018-08-17T13:24:13.884Z,94665.00
2018-08-17T13:26:45.103Z,94667.00
2018-08-17T13:29:16.704Z,94658.00
2018-08-17T13:31:47.823Z,94659.00
2018-08-17T13:34:19.281Z,94664.00
2018-08-17T13:36:50.821Z,94676.00
2018-08-17T13:39:22.410Z,94684.00
2018-08-17T13:41:54.015Z,94691.00
2018-08-17T13:44:25.194Z,94687.00
2018-08-17T13:46:56.352Z,94695.00
2018-08-17T13:49:28.011Z,94708.00
2018-08-17T13:51:59.199Z,94709.00
2018-08-17T13:54:30.419Z,94706.00
2018-08-17T13:57:01.664Z,94704.00
2018-08-17T13:59:32.838Z,94704.00
2018-08-17T14:02:04.320Z,94698.00
2018-08-17T14:04:35.199Z,94694.00
2018-08-17T14:07:06.565Z,94689.00
2018-08-17T14:09:37.965Z,94688.00
2018-08-17T14:12:10.235Z,94683.00
2018-08-17T14:14:41.315Z,94689.00
2018-08-17T14:17:12.541Z,94691.00
2018-08-17T14:19:43.467Z,94697.00
2018-08-17T14:22:14.610Z,94690.00
2018-08-17T14:24:45.853Z,94702.00
2018-08-17T14:27:16.940Z,94702.00
2018-08-17T14:29:47.985Z,94702.00
2018-08-17T14:32:19.156Z,94709.00
2018-08-17T14:34:50.364Z,94700.00
2018-08-17T14:37:21.492Z,94701.00
2018-08-17T14:39:52.651Z,94696.00
2018-08-17T14:42:23.701Z,94702.00
2018-08-17T14:44:55.690Z,94704.00
2018-08-17T14:47:27.500Z,94704.00
2018-08-17T14:49:59.159Z,94703.00
2018-08-17T14:52:30.225Z,94698.00
2018-08-17T14:55:01.792Z,94693.00
2018-08-17T14:57:33.469Z,94702.00
2018-08-17T15:00:05.743Z,94697.00
2018-08-17T15:02:37.293Z,94698.00
2018-08-17T15:05:10.820Z,94695.00
2018-08-17T15:07:42.516Z,94690.00
2018-08-17T15:10:14.885Z,94698.00
2018-08-17T15:12:47.574Z,94695.00
2018-08-17T15:15:18.755Z,94694.00
2018-08-17T15:17:49.923Z,94692.00
2018-08-17T15:20:20.927Z,94691.00
2018-08-17T15:22:52.108Z,94691.00
2018-08-17T15:25:23.306Z,94696.00
2018-08-17T15:27:54.443Z,94700.00
2018-08-17T15:30:25.543Z,94699.00
2018-08-17T15:32:56.673Z,94696.00
2018-08-17T15:35:29.721Z,94698.00
2018-08-17T15:38:00.999Z,94695.00
2018-08-17T15:40:31.956Z,94697.00
2018-08-17T15:43:07.163Z,94694.00
2018-08-17T15:45:38.462Z,94692.00
2018-08-17T15:48:09.731Z,94701.00
2018-08-17T15:50:40.849Z,94714.00
2018-08-17T15:53:12.095Z,94717.00
2018-08-17T15:55:43.180Z,94712.00
2018-08-17T15:58:14.230Z,94714.00
2018-08-17T16:00:46.528Z,94711.00
2018-08-17T16:03:17.823Z,94712.00
2018-08-17T16:05:48.858Z,94709.00
2018-08-17T16:08:20.358Z,94706.00
2018-08-17T16:10:51.571Z,94706.00
2018-08-17T16:25:28.220Z,94708.00
2018-08-17T16:28:00.785Z,94708.00
2018-08-17T16:30:33.032Z,94713.00
2018-08-17T16:33:05.650Z,94715.00
2018-08-17T16:35:38.359Z,94711.00
2018-08-17T16:38:10.964Z,94719.00
2018-08-17T16:40:53.002Z,94717.00
2018-08-17T16:43:35.533Z,94722.00
2018-08-17T16:46:08.340Z,94719.00
2018-08-17T16:48:41.269Z,94723.00
2018-08-17T16:51:13.822Z,94726.00
2018-08-17T16:53:46.263Z,94722.00
2018-08-17T16:56:18.609Z,94724.00
2018-08-17T16:58:51.156Z,94733.00
2018-08-17T17:01:23.645Z,94732.00
2018-08-17T17:03:56.321Z,94740.00
2018-08-17T17:06:28.772Z,94737.00
2018-08-17T17:09:04.994Z,94740.00
2018-08-17T17:11:37.546Z,94745.00
2018-08-17T17:14:10.552Z,94742.00
2018-08-17T17:16:48.945Z,94745.00
2018-08-17T17:19:22.903Z,94752.00
2018-08-17T17:21:55.788Z,94752.00
2018-08-17T17:24:27.871Z,94751.00
2018-08-17T17:27:00.076Z,94751.00
2018-08-17T17:29:36.630Z,94754.00
2018-08-17T17:32:08.888Z,94756.00
2018-08-17T17:34:41.116Z,94765.00
2018-08-17T17:37:13.902Z,94764.00
2018-08-17T17:39:46.392Z,94770.00
2018-08-17T17:42:18.635Z,94773.00
2018-08-17T17:44:51.188Z,94768.00
2018-08-17T17:47:23.393Z,94771.00
2018-08-17T17:49:55.996Z,94774.00
2018-08-17T17:52:29.442Z,94780.00
2018-08-17T17:55:01.735Z,94782.00
2018-08-17T17:57:33.681Z,94785.00
2018-08-17T18:00:06.114Z,94788.00
2018-08-17T18:02:38.311Z,94796.00
2018-08-17T18:05:11.734Z,94802.00
2018-08-17T18:07:48.392Z,94811.00
2018-08-17T18:10:22.004Z,94809.00
2018-08-17T18:12:54.219Z,94807.00
2018-08-17T18:15:26.189Z,94812.00
2018-08-17T18:17:58.556Z,94815.00
2018-08-17T18:20:31.079Z,94816.00
2018-08-17T18:23:03.201Z,94815.00
2018-08-17T18:25:35.602Z,94818.00
2018-08-17T18:28:08.345Z,94819.00
2018-08-17T18:30:40.843Z,94825.00
2018-08-17T18:33:13.157Z,94832.00
2018-08-17T18:35:45.473Z,94835.00
2018-08-17T18:38:18.286Z,94838.00
2018-08-17T18:40:50.634Z,94849.00
2018-08-17T18:43:23.163Z,94852.00
2018-08-17T18:45:55.451Z,94850.00
2018-08-17T18:48:27.393Z,94853.00
2018-08-17T18:50:59.085Z,94861.00
2018-08-17T18:53:31.151Z,94858.00
2018-08-17T18:56:03.285Z,94858.00
2018-08-17T18:58:35.465Z,94861.00
2018-08-17T19:01:07.764Z,94865.00
2018-08-17T19:03:39.705Z,94867.00
2018-08-17T19:06:11.844Z,94870.00
2018-08-17T19:08:44.148Z,94875.00
2018-08-17T19:11:16.476Z,94878.00
2018-08-17T19:13:48.490Z,94875.00
2018-08-17T19:16:20.496Z,94881.00
2018-08-17T19:18:53.028Z,94879.00
2018-08-17T19:21:25.713Z,94879.00
2018-08-17T19:23:57.690Z,94880.00
2018-08-17T19:26:30.305Z,94881.00
2018-08-17T19:29:02.561Z,94879.00
2018-08-17T19:31:34.846Z,94875.00
2018-08-17T19:34:06.946Z,94881.00
2018-08-17T19:36:39.317Z,94880.00
2018-08-17T19:39:20.789Z,94883.00
2018-08-17T19:41:52.690Z,94876.00
2018-08-17T19:44:25.295Z,94869.00
2018-08-17T19:46:57.736Z,94876.00
2018-08-17T19:49:30.236Z,94876.00
2018-08-17T19:52:02.621Z,94869.00
2018-08-17T19:54:35.148Z,94863.00
2018-08-17T19:57:07.578Z,94867.00
2018-08-17T19:59:40.663Z,94867.00
2018-08-17T20:02:12.871Z,94868.00
2018-08-17T20:04:45.580Z,94871.00
2018-08-17T20:07:17.939Z,94876.00
2018-08-17T20:09:50.276Z,94880.00
2018-08-17T20:12:23.686Z,94883.00
2018-08-17T20:14:55.711Z,94889.00
2018-08-17T20:17:27.616Z,94888.00
2018-08-17T20:19:59.998Z,94884.00
2018-08-17T20:22:32.465Z,94879.00
2018-08-17T20:25:10.689Z,94881.00
2018-08-17T20:27:43.137Z,94876.00
2018-08-17T20:30:21.632Z,94883.00
2018-08-17T20:32:54.152Z,94881.00
2018-08-17T20:35:26.276Z,94885.00
2018-08-17T20:37:58.374Z,94879.00
2018-08-17T20:40:31.443Z,94884.00
2018-08-17T20:43:03.610Z,94884.00
2018-08-17T20:45:35.448Z,94884.00
2018-08-17T20:48:07.708Z,94886.00
2018-08-17T20:50:39.674Z,94880.00
2018-08-17T20:53:11.877Z,94882.00
2018-08-17T20:55:44.113Z,94879.00
2018-08-17T20:58:16.124Z,94875.00
2018-08-17T21:00:48.407Z,94875.00
2018-08-17T21:03:20.731Z,94879.00
2018-08-17T21:05:52.974Z,94868.00
2018-08-17T21:08:25.510Z,94865.00
2018-08-17T21:10:57.757Z,94870.00
2018-08-17T21:13:29.959Z,94877.00
2018-08-17T21:16:02.163Z,94889.00
2018-08-17T21:18:34.485Z,94907.00
2018-08-17T21:21:06.610Z,94912.00
2018-08-17T21:23:39.021Z,94915.00
2018-08-17T21:26:11.153Z,94930.00
2018-08-17T21:28:43.260Z,94922.00
2018-08-17T21:31:15.417Z,94923.00
2018-08-17T21:33:49.083Z,94919.00
2018-08-17T21:36:21.212Z,94913.00
2018-08-17T21:39:16.374Z,94914.00
2018-08-17T21:41:49.469Z,94911.00
2018-08-17T21:44:21.995Z,94904.00
2018-08-17T21:46:59.851Z,94906.00
2018-08-17T21:49:31.835Z,94904.00
2018-08-17T21:52:07.793Z,94908.00
2018-08-17T21:54:39.959Z,94904.00
2018-08-17T21:57:12.316Z,94909.00
2018-08-17T21:59:50.378Z,94914.00
2018-08-17T22:02:22.835Z,94914.00
2018-08-17T22:04:55.141Z,94911.00
2018-08-17T22:07:31.741Z,94909.00
2018-08-17T22:10:04.071Z,94913.00
2018-08-17T22:12:36.579Z,94914.00
2018-08-17T22:15:09.518Z,94913.00
2018-08-17T22:17:41.848Z,94911.00
2018-08-17T22:20:14.117Z,94906.00
2018-08-17T22:22:46.330Z,94904.00
2018-08-17T22:25:19.338Z,94896.00
2018-08-17T22:27:51.653Z,94902.00
2018-08-17T22:30:26.784Z,94900.00
2018-08-17T22:32:59.086Z,94892.00
2018-08-17T22:35:31.542Z,94892.00
2018-08-17T22:38:03.860Z,94891.00
2018-08-17T22:40:35.880Z,94888.00
2018-08-17T22:43:08.144Z,94896.00
2018-08-17T22:45:40.372Z,94892.00
2018-08-17T22:48:12.430Z,94887.00
2018-08-17T22:50:44.642Z,94887.00
2018-08-17T22:53:16.869Z,94892.00
2018-08-17T22:55:49.161Z,94892.00
2018-08-17T22:58:21.528Z,94895.00
2018-08-17T23:00:53.704Z,94904.00
2018-08-17T23:03:25.828Z,94906.00
2018-08-17T23:05:58.451Z,94904.00
2018-08-17T23:08:30.827Z,94899.00
2018-08-17T23:11:03.473Z,94907.00
2018-08-17T23:13:35.400Z,94904.00
2018-08-17T23:16:07.569Z,94909.00
2018-08-17T23:18:40.257Z,94910.00
2018-08-17T23:21:12.699Z,94911.00
2018-08-17T23:23:44.883Z,94904.00
2018-08-17T23:26:16.941Z,94896.00
2018-08-17T23:28:49.108Z,94892.00
2018-08-17T23:31:22.078Z,94891.00
2018-08-17T23:33:54.032Z,94898.00
2018-08-17T23:36:25.976Z,94898.00
2018-08-17T23:38:58.900Z,94897.00
2018-08-17T23:41:32.040Z,94893.00
2018-08-17T23:44:04.133Z,94889.00
2018-08-17T23:46:35.927Z,94893.00
2018-08-17T23:49:07.620Z,94892.00
2018-08-17T23:51:39.509Z,94895.00
2018-08-17T23:54:11.771Z,94894.00
2018-08-17T23:56:43.908Z,94892.00
2018-08-17T23:59:16.208Z,94891.00
